Ilo, Peru
Current Conditions -  °F | °C
As of 2:00 AM on Friday 28 Nov 2014 (Local Time) from SPTN Reporting Station
Overcast Overcast  
Wind Chill: 61°   Ceiling: 1500
Heat Index: 61°   Visibility: 6mi
Dew Point: 57°   Wind: 3mph
Humidity: 88%   Direction: 190°S
Pressure: 29.85"   Gusts: NA
Location:  17.64°S, 71.34°W
Report Text: SPTN 280700Z 19003KT 9999 OVC015 16/14 Q1011 RMK PP000
Loading
Personal Weather Stations






























Interactive Weather Map New forecast layout! Learn more

10-Day Weather Forecast

Advertisements
Track Severe Weather on mobile